Time;durP1;ratioP1;P1;durP2;ratioP2;P2;SDS_P1;SDS_P2;PMS_P1;PMS_P2;Temp;Humidity;BMP_temperature;BMP_pressure;BME280_temperature;BME280_humidity;BME280_pressure;Samples;Min_cycle;Max_cycle;Signal;HPM_P1;HPM_P2
2021/08/09 00:01:26;;;;;;;4.53;2.20;;;18.60;77.00;;;;;;5075045;28;20939;-75
2021/08/09 00:03:53;;;;;;;5.50;2.23;;;18.50;77.10;;;;;;5075019;28;20447;-75
2021/08/09 00:06:23;;;;;;;4.23;2.07;;;18.50;76.60;;;;;;5075181;28;20479;-75
2021/08/09 00:08:50;;;;;;;4.27;2.40;;;18.50;77.30;;;;;;5074936;28;20911;-75
2021/08/09 00:11:17;;;;;;;4.10;2.30;;;18.50;76.70;;;;;;5075135;28;20444;-75
2021/08/09 00:13:44;;;;;;;4.13;2.60;;;18.50;76.90;;;;;;5075026;28;20487;-75
2021/08/09 00:16:12;;;;;;;2.47;2.00;;;18.50;76.70;;;;;;5074677;28;20889;-75
2021/08/09 00:18:41;;;;;;;6.13;2.60;;;18.40;76.50;;;;;;5073848;28;20442;-75
2021/08/09 00:21:08;;;;;;;6.67;2.00;;;18.50;76.90;;;;;;5074944;28;20240;-75
2021/08/09 00:23:35;;;;;;;4.97;2.30;;;18.50;76.70;;;;;;5074576;28;20453;-75
2021/08/09 00:26:02;;;;;;;4.27;2.37;;;18.40;76.20;;;;;;5074760;28;20471;-75
2021/08/09 00:28:29;;;;;;;4.93;2.50;;;18.40;76.40;;;;;;5074812;28;20441;-75
2021/08/09 00:30:55;;;;;;;3.90;2.07;;;18.30;76.30;;;;;;5074436;28;20954;-75
2021/08/09 00:33:23;;;;;;;5.43;2.37;;;18.30;76.30;;;;;;5074626;28;20484;-75
2021/08/09 00:35:51;;;;;;;10.03;3.77;;;18.30;76.30;;;;;;5074571;28;20467;-75
2021/08/09 00:38:17;;;;;;;4.20;1.60;;;18.30;76.20;;;;;;5074601;28;20472;-75
2021/08/09 00:40:44;;;;;;;3.67;2.10;;;18.30;76.00;;;;;;5074226;28;20938;-75
2021/08/09 00:43:11;;;;;;;9.10;2.30;;;18.30;76.00;;;;;;5074462;28;20464;-75
2021/08/09 00:45:38;;;;;;;6.20;2.43;;;18.30;76.20;;;;;;5074059;28;20970;-75
2021/08/09 00:48:05;;;;;;;4.10;2.40;;;18.30;76.00;;;;;;5074100;28;20445;-75
2021/08/09 00:50:34;;;;;;;5.73;1.90;;;18.30;76.30;;;;;;5074014;28;20966;-75
2021/08/09 00:53:01;;;;;;;4.20;1.80;;;18.30;76.20;;;;;;5074233;28;20483;-75
2021/08/09 00:55:29;;;;;;;3.90;2.03;;;18.30;75.90;;;;;;5074185;28;20476;-75
2021/08/09 00:57:55;;;;;;;4.87;2.00;;;18.30;76.10;;;;;;5074214;28;20445;-75
2021/08/09 01:00:22;;;;;;;4.70;1.93;;;18.30;75.90;;;;;;5074181;28;20452;-75
2021/08/09 01:02:49;;;;;;;5.87;2.30;;;18.30;76.30;;;;;;5073888;28;20931;-75
2021/08/09 01:05:16;;;;;;;3.93;2.33;;;18.30;75.80;;;;;;5074181;28;20460;-75
2021/08/09 01:07:51;;;;;;;3.20;1.70;;;18.30;75.80;;;;;;5074346;28;20448;-75
2021/08/09 01:10:24;;;;;;;5.33;2.00;;;18.20;75.70;;;;;;5073744;28;20433;-75
2021/08/09 01:13:01;;;;;;;5.23;2.17;;;18.20;75.70;;;;;;5073942;28;20560;-75
2021/08/09 01:15:33;;;;;;;6.10;1.90;;;18.20;75.80;;;;;;5073953;28;20823;-75
2021/08/09 01:18:03;;;;;;;5.67;2.20;;;18.20;75.90;;;;;;5073929;28;20429;-75
2021/08/09 01:20:44;;;;;;;3.83;2.13;;;18.20;76.00;;;;;;5073846;28;20451;-75
2021/08/09 01:23:20;;;;;;;6.97;2.20;;;18.20;76.10;;;;;;5073489;28;20453;-75
2021/08/09 01:25:51;;;;;;;4.37;2.00;;;18.20;76.00;;;;;;5073742;28;20464;-75
2021/08/09 01:28:21;;;;;;;6.23;2.30;;;18.10;75.80;;;;;;5073544;28;20895;-74
2021/08/09 01:30:49;;;;;;;4.90;2.07;;;18.20;76.00;;;;;;5073820;28;20456;-74
2021/08/09 01:33:17;;;;;;;5.20;2.20;;;18.10;76.20;;;;;;5073306;28;20823;-74
2021/08/09 01:35:46;;;;;;;4.23;1.80;;;18.10;76.10;;;;;;5073597;28;20472;-75
2021/08/09 01:38:15;;;;;;;2.53;1.77;;;18.10;76.40;;;;;;5073649;28;20505;-74
2021/08/09 01:40:43;;;;;;;7.07;2.07;;;18.20;76.90;;;;;;5073645;28;20837;-74
2021/08/09 01:43:11;;;;;;;3.90;1.70;;;18.20;77.00;;;;;;5073551;28;20445;-74
2021/08/09 01:45:40;;;;;;;4.13;2.00;;;18.20;76.40;;;;;;5073140;28;20464;-76
2021/08/09 01:48:07;;;;;;;5.43;2.40;;;18.20;76.50;;;;;;5073553;28;20445;-76
2021/08/09 01:50:34;;;;;;;4.00;1.83;;;18.20;76.30;;;;;;5073496;28;20448;-75
2021/08/09 01:53:02;;;;;;;5.73;1.73;;;18.30;76.40;;;;;;5073312;28;20449;-75
2021/08/09 01:55:29;;;;;;;5.77;2.27;;;18.30;76.50;;;;;;5073327;28;20471;-75
2021/08/09 01:57:55;;;;;;;4.27;2.00;;;18.30;76.10;;;;;;5073015;28;20445;-75
2021/08/09 02:00:22;;;;;;;5.87;2.17;;;18.30;76.00;;;;;;5073115;28;20448;-75
2021/08/09 02:02:52;;;;;;;4.57;2.10;;;18.30;76.20;;;;;;5073036;28;20860;-75
2021/08/09 02:05:20;;;;;;;5.20;2.10;;;18.40;76.50;;;;;;5073246;28;20464;-75
2021/08/09 02:07:48;;;;;;;5.77;1.87;;;18.40;76.50;;;;;;5073341;28;20459;-75
2021/08/09 02:10:18;;;;;;;4.40;1.93;;;18.40;76.30;;;;;;5073337;28;20451;-75
2021/08/09 02:12:50;;;;;;;3.93;1.60;;;18.50;76.20;;;;;;5073634;28;20440;-75
2021/08/09 02:15:19;;;;;;;5.17;1.90;;;18.50;76.40;;;;;;5073204;28;20463;-76
2021/08/09 02:17:54;;;;;;;3.53;1.37;;;18.50;76.40;;;;;;5073261;28;20444;-75
2021/08/09 02:20:28;;;;;;;3.77;2.30;;;18.50;76.10;;;;;;5073240;28;20424;-75
2021/08/09 02:22:58;;;;;;;3.23;2.03;;;18.50;76.10;;;;;;5072907;28;20456;-75
2021/08/09 02:25:27;;;;;;;3.90;2.00;;;18.40;75.90;;;;;;5073187;28;20464;-75
2021/08/09 02:27:56;;;;;;;3.30;1.83;;;18.40;75.90;;;;;;5073347;28;20475;-75
2021/08/09 02:30:25;;;;;;;3.30;1.83;;;18.40;75.90;;;;;;5073175;28;20934;-74
2021/08/09 02:32:58;;;;;;;3.00;1.63;;;18.40;75.90;;;;;;5073624;28;20441;-74
2021/08/09 02:35:26;;;;;;;5.00;1.77;;;18.40;75.70;;;;;;5074291;28;20455;-74
2021/08/09 02:37:53;;;;;;;4.27;1.60;;;18.40;75.90;;;;;;5073241;28;20449;-74
2021/08/09 02:40:21;;;;;;;5.60;2.53;;;18.40;76.00;;;;;;5073142;28;20451;-74
2021/08/09 02:42:49;;;;;;;2.57;1.70;;;18.40;76.00;;;;;;5073016;28;20518;-74
2021/08/09 02:45:16;;;;;;;3.13;1.70;;;18.40;76.10;;;;;;5072915;28;20456;-74
2021/08/09 02:47:44;;;;;;;3.63;1.83;;;18.30;76.10;;;;;;5073009;28;20441;-75
2021/08/09 02:50:14;;;;;;;2.63;2.10;;;18.30;76.30;;;;;;5072635;28;20448;-75
2021/08/09 02:52:43;;;;;;;4.97;2.40;;;18.30;76.70;;;;;;5073001;28;20429;-75
2021/08/09 02:55:10;;;;;;;10.67;2.47;;;18.30;76.60;;;;;;5072769;28;20491;-75
2021/08/09 02:57:38;;;;;;;4.90;1.70;;;18.30;76.60;;;;;;5072867;28;20452;-75
2021/08/09 03:00:06;;;;;;;4.23;2.00;;;18.30;76.40;;;;;;5072915;28;20498;-75
2021/08/09 03:02:37;;;;;;;3.47;2.13;;;18.20;76.40;;;;;;5072802;28;20448;-75
2021/08/09 03:05:06;;;;;;;2.60;1.60;;;18.20;76.50;;;;;;5072814;28;20469;-75
2021/08/09 03:07:36;;;;;;;1.90;1.70;;;18.20;76.30;;;;;;5072489;28;20806;-75
2021/08/09 03:10:03;;;;;;;5.30;1.80;;;18.20;76.30;;;;;;5073961;28;20950;-75
2021/08/09 03:12:29;;;;;;;4.20;2.10;;;18.20;76.50;;;;;;5076271;28;20485;-75
2021/08/09 03:14:56;;;;;;;2.97;1.60;;;18.20;76.70;;;;;;5076084;28;20495;-75
2021/08/09 03:17:23;;;;;;;2.80;2.30;;;18.10;76.50;;;;;;5076195;28;20814;-75
2021/08/09 03:19:50;;;;;;;6.20;1.97;;;18.10;76.80;;;;;;5076130;28;20471;-76
2021/08/09 03:22:16;;;;;;;3.10;1.80;;;18.10;76.90;;;;;;5075886;28;20457;-75
2021/08/09 03:24:44;;;;;;;3.27;1.63;;;18.10;76.90;;;;;;5076016;28;20437;-75
2021/08/09 03:27:11;;;;;;;5.63;2.47;;;18.10;76.90;;;;;;5076055;28;20448;-75
2021/08/09 03:29:38;;;;;;;2.13;1.70;;;18.10;76.90;;;;;;5076015;28;20448;-76
2021/08/09 03:32:06;;;;;;;3.57;2.20;;;18.10;77.00;;;;;;5075688;28;20528;-76
2021/08/09 03:34:32;;;;;;;4.97;2.37;;;18.10;77.20;;;;;;5075802;28;20480;-76
2021/08/09 03:36:59;;;;;;;10.00;3.27;;;18.20;77.60;;;;;;5075837;28;20448;-76
2021/08/09 03:39:26;;;;;;;3.77;1.97;;;18.20;77.70;;;;;;5075771;28;20444;-75
2021/08/09 03:41:54;;;;;;;4.30;1.90;;;18.20;77.50;;;;;;5075708;28;20448;-75
2021/08/09 03:44:21;;;;;;;4.80;1.90;;;18.20;77.20;;;;;;5075694;28;20452;-75
2021/08/09 03:46:47;;;;;;;3.93;2.07;;;18.30;77.00;;;;;;5075599;28;20472;-75
2021/08/09 03:49:14;;;;;;;2.77;2.27;;;18.20;76.50;;;;;;5075272;28;20796;-75
2021/08/09 03:51:41;;;;;;;4.37;1.90;;;18.20;76.70;;;;;;5075543;28;20448;-75
2021/08/09 03:54:09;;;;;;;3.63;2.30;;;18.20;76.70;;;;;;5075406;28;20836;-75
2021/08/09 03:56:36;;;;;;;4.60;1.90;;;18.20;76.60;;;;;;5075405;28;20470;-75
2021/08/09 03:59:04;;;;;;;4.00;1.83;;;18.20;76.90;;;;;;5075529;28;20444;-76
2021/08/09 04:01:37;;;;;;;2.80;1.87;;;18.20;77.00;;;;;;5075591;28;20448;-76
2021/08/09 04:04:04;;;;;;;4.53;2.33;;;18.20;76.90;;;;;;5075008;28;20886;-76
2021/08/09 04:06:30;;;;;;;3.07;2.00;;;18.20;76.90;;;;;;5075233;28;20513;-76
2021/08/09 04:08:57;;;;;;;3.33;1.70;;;18.20;76.90;;;;;;5074900;28;20942;-76
2021/08/09 04:11:24;;;;;;;6.93;2.23;;;18.20;76.80;;;;;;5075184;28;20444;-75
2021/08/09 04:13:50;;;;;;;2.37;1.80;;;18.20;76.70;;;;;;5074986;28;20481;-75
2021/08/09 04:16:18;;;;;;;4.30;2.27;;;18.20;76.70;;;;;;5074996;28;20490;-76
2021/08/09 04:18:45;;;;;;;5.37;1.90;;;18.20;76.90;;;;;;5075073;28;20464;-75
2021/08/09 04:21:12;;;;;;;4.47;2.83;;;18.10;76.90;;;;;;5074375;28;20449;-75
2021/08/09 04:23:38;;;;;;;4.80;1.90;;;18.10;76.70;;;;;;5074537;28;20452;-75
2021/08/09 04:26:05;;;;;;;4.20;2.40;;;18.10;76.80;;;;;;5074811;28;20464;-75
2021/08/09 04:28:32;;;;;;;5.13;2.60;;;18.10;77.10;;;;;;5074530;28;20935;-75
2021/08/09 04:30:59;;;;;;;3.33;1.63;;;18.10;77.10;;;;;;5074759;28;20519;-75
2021/08/09 04:33:27;;;;;;;5.27;2.53;;;18.10;77.10;;;;;;5074412;28;20444;-75
2021/08/09 04:35:53;;;;;;;5.97;2.17;;;18.10;77.40;;;;;;5074557;28;20490;-75
2021/08/09 04:38:20;;;;;;;3.57;2.00;;;18.10;77.20;;;;;;5074590;28;20453;-75
2021/08/09 04:40:47;;;;;;;5.77;2.23;;;18.10;77.40;;;;;;5074280;28;20934;-75
2021/08/09 04:43:14;;;;;;;3.67;1.80;;;18.00;77.40;;;;;;5074231;28;20977;-75
2021/08/09 04:45:40;;;;;;;3.30;2.00;;;18.00;77.50;;;;;;5074419;28;20464;-75
2021/08/09 04:48:07;;;;;;;2.80;1.90;;;18.00;77.60;;;;;;5074441;28;20475;-75
2021/08/09 04:50:35;;;;;;;2.67;1.87;;;18.00;78.10;;;;;;5074369;28;20455;-75
2021/08/09 04:53:02;;;;;;;3.53;1.90;;;17.90;78.10;;;;;;5074384;28;20448;-75
2021/08/09 04:55:29;;;;;;;3.67;1.97;;;17.90;78.20;;;;;;5074173;28;20499;-75
2021/08/09 04:57:56;;;;;;;3.93;1.87;;;17.90;78.70;;;;;;5074288;28;20447;-75
2021/08/09 05:00:22;;;;;;;4.40;2.43;;;17.90;78.60;;;;;;5073883;28;20977;-75
2021/08/09 05:02:49;;;;;;;2.87;1.77;;;17.90;78.80;;;;;;5074979;28;20765;-75
2021/08/09 05:05:16;;;;;;;4.30;2.03;;;17.90;78.80;;;;;;5074085;28;20460;-75
2021/08/09 05:07:44;;;;;;;4.27;1.90;;;17.80;78.70;;;;;;5074106;28;20449;-75
2021/08/09 05:10:11;;;;;;;3.93;2.17;;;17.80;78.80;;;;;;5073711;28;20445;-75
2021/08/09 05:12:38;;;;;;;3.60;1.97;;;17.70;79.00;;;;;;5073993;28;20440;-75
2021/08/09 05:15:07;;;;;;;4.80;2.33;;;17.70;79.10;;;;;;5073851;28;20502;-75
2021/08/09 05:17:34;;;;;;;3.33;2.10;;;17.70;79.40;;;;;;5073918;28;20861;-75
2021/08/09 05:20:01;;;;;;;2.50;1.77;;;17.70;79.70;;;;;;5073582;28;20922;-75
2021/08/09 05:22:29;;;;;;;1.83;1.70;;;17.70;79.80;;;;;;5073574;28;20464;-75
2021/08/09 05:24:57;;;;;;;4.20;2.20;;;17.70;79.90;;;;;;5073588;28;20954;-75
2021/08/09 05:27:24;;;;;;;5.63;2.30;;;17.70;79.80;;;;;;5073808;28;20445;-75
2021/08/09 05:29:51;;;;;;;2.90;2.50;;;17.70;79.70;;;;;;5073963;28;20456;-75
2021/08/09 05:32:17;;;;;;;5.07;2.10;;;17.80;80.70;;;;;;5073698;28;20453;-75
2021/08/09 05:34:46;;;;;;;4.60;2.43;;;17.80;79.90;;;;;;5073750;28;20484;-75
2021/08/09 05:37:13;;;;;;;4.03;2.40;;;17.80;79.80;;;;;;5073676;28;20445;-75
2021/08/09 05:39:40;;;;;;;3.37;2.43;;;17.80;80.10;;;;;;5073625;28;20457;-75
2021/08/09 05:42:08;;;;;;;2.97;2.20;;;17.80;80.30;;;;;;5073288;28;20812;-75
2021/08/09 05:44:35;;;;;;;2.60;1.70;;;17.80;80.00;;;;;;5073132;28;20783;-75
2021/08/09 05:47:02;;;;;;;2.70;2.40;;;17.80;80.00;;;;;;5073549;28;20452;-75
2021/08/09 05:49:29;;;;;;;6.40;2.40;;;17.80;80.20;;;;;;5073489;28;20456;-75
2021/08/09 05:51:56;;;;;;;4.03;2.10;;;17.80;80.40;;;;;;5073342;28;20452;-75
2021/08/09 05:54:22;;;;;;;3.67;2.00;;;17.80;80.20;;;;;;5073176;28;20827;-75
2021/08/09 05:56:49;;;;;;;4.60;2.80;;;17.80;80.50;;;;;;5073414;28;20464;-75
2021/08/09 05:59:17;;;;;;;6.33;2.20;;;17.80;80.80;;;;;;5073632;28;20447;-75
2021/08/09 06:01:44;;;;;;;2.80;1.70;;;17.80;80.60;;;;;;5073430;28;20468;-75
2021/08/09 06:04:10;;;;;;;4.57;2.50;;;17.80;80.90;;;;;;5073379;28;20445;-75
2021/08/09 06:06:37;;;;;;;3.60;2.17;;;17.80;80.80;;;;;;5073334;28;20469;-75
2021/08/09 06:09:04;;;;;;;4.40;2.20;;;17.80;80.80;;;;;;5073388;28;20468;-75
2021/08/09 06:11:31;;;;;;;2.63;1.80;;;17.90;81.10;;;;;;5073430;28;20543;-74
2021/08/09 06:13:57;;;;;;;3.23;1.97;;;17.90;80.80;;;;;;5073068;28;20869;-74
2021/08/09 06:16:26;;;;;;;8.73;2.50;;;17.90;80.50;;;;;;5072812;28;20849;-75
2021/08/09 06:18:54;;;;;;;4.33;2.30;;;18.00;80.20;;;;;;5073170;28;20460;-75
2021/08/09 06:21:21;;;;;;;6.93;3.03;;;18.00;80.00;;;;;;5074210;28;20434;-75
2021/08/09 06:23:48;;;;;;;3.70;1.97;;;18.10;79.90;;;;;;5072868;28;20453;-75
2021/08/09 06:26:15;;;;;;;5.40;2.37;;;18.10;79.80;;;;;;5073242;28;20487;-75
2021/08/09 06:28:41;;;;;;;8.97;2.30;;;18.20;79.20;;;;;;5072961;28;20441;-75
2021/08/09 06:31:08;;;;;;;4.17;2.30;;;18.30;79.20;;;;;;5073175;28;20444;-75
2021/08/09 06:33:36;;;;;;;4.90;2.43;;;18.30;79.10;;;;;;5072787;28;20449;-75
2021/08/09 06:36:03;;;;;;;9.37;2.67;;;18.40;79.00;;;;;;5072947;28;20488;-75
2021/08/09 06:38:30;;;;;;;3.87;2.13;;;18.40;78.70;;;;;;5073066;28;20812;-75
2021/08/09 06:40:57;;;;;;;3.40;1.90;;;18.40;78.70;;;;;;5073012;28;20456;-75
2021/08/09 06:43:24;;;;;;;4.03;2.50;;;18.50;79.50;;;;;;5073059;28;20452;-75
2021/08/09 06:45:51;;;;;;;5.47;1.90;;;18.60;78.30;;;;;;5075138;28;20836;-75
2021/08/09 06:48:18;;;;;;;4.87;2.23;;;18.60;78.00;;;;;;5076749;28;20441;-75
2021/08/09 06:50:46;;;;;;;5.40;2.27;;;18.60;77.50;;;;;;5076723;28;20448;-75
2021/08/09 06:53:13;;;;;;;5.80;2.30;;;18.70;77.80;;;;;;5076346;28;20961;-75
2021/08/09 06:55:40;;;;;;;4.40;2.30;;;18.70;77.80;;;;;;5076461;28;20492;-76
2021/08/09 06:58:07;;;;;;;6.60;2.33;;;18.80;77.60;;;;;;5076598;28;20455;-75
2021/08/09 07:00:33;;;;;;;3.80;2.10;;;18.80;77.40;;;;;;5077062;28;20817;-76
2021/08/09 07:03:06;;;;;;;3.73;1.73;;;18.90;77.10;;;;;;5076193;28;20930;-76
2021/08/09 07:05:38;;;;;;;4.20;2.47;;;19.00;77.00;;;;;;5076401;28;20475;-76
2021/08/09 07:08:07;;;;;;;5.43;2.40;;;19.10;77.10;;;;;;5076126;28;20910;-76
2021/08/09 07:10:34;;;;;;;4.77;1.93;;;19.10;76.50;;;;;;5076035;28;20995;-76
2021/08/09 07:13:00;;;;;;;4.20;2.37;;;19.20;76.10;;;;;;5076316;28;20452;-76
2021/08/09 07:15:27;;;;;;;6.23;2.23;;;19.30;76.20;;;;;;5075894;28;20488;-76
2021/08/09 07:17:54;;;;;;;5.37;1.90;;;19.40;75.80;;;;;;5075978;28;20956;-76
2021/08/09 07:20:21;;;;;;;7.03;2.20;;;19.50;75.10;;;;;;5076269;28;20444;-76
2021/08/09 07:22:48;;;;;;;5.47;2.40;;;19.50;75.20;;;;;;5075887;28;20483;-75
2021/08/09 07:25:17;;;;;;;3.20;1.60;;;19.60;74.30;;;;;;5076010;28;20472;-75
2021/08/09 07:27:44;;;;;;;6.50;2.13;;;19.60;73.90;;;;;;5075955;28;20456;-75
2021/08/09 07:30:13;;;;;;;3.57;1.87;;;19.70;74.00;;;;;;5076063;28;20471;-75
2021/08/09 07:32:40;;;;;;;4.30;2.23;;;19.70;73.60;;;;;;5075932;28;20445;-75
2021/08/09 07:35:08;;;;;;;4.17;1.87;;;19.80;73.70;;;;;;5075789;28;20485;-75
2021/08/09 07:37:36;;;;;;;4.50;1.83;;;19.80;73.40;;;;;;5075528;28;20444;-75
2021/08/09 07:40:03;;;;;;;3.50;1.63;;;19.90;73.40;;;;;;5075800;28;20468;-75
2021/08/09 07:42:31;;;;;;;4.23;1.77;;;20.00;72.30;;;;;;5075780;28;20447;-75
2021/08/09 07:44:58;;;;;;;3.97;1.53;;;20.20;71.80;;;;;;5075633;28;20472;-75
2021/08/09 07:47:25;;;;;;;3.87;1.47;;;20.50;71.60;;;;;;5075696;28;20449;-75
2021/08/09 07:49:51;;;;;;;5.43;1.80;;;20.80;70.80;;;;;;5075347;28;20451;-75
2021/08/09 07:52:18;;;;;;;3.70;1.67;;;21.00;69.00;;;;;;5075603;28;20441;-75
2021/08/09 07:54:45;;;;;;;6.50;1.73;;;21.30;68.00;;;;;;5075055;28;20946;-75
2021/08/09 07:57:13;;;;;;;7.90;1.93;;;21.50;67.20;;;;;;5074427;28;20452;-75
2021/08/09 07:59:42;;;;;;;1.97;1.63;;;21.60;66.90;;;;;;5075442;28;20553;-75
2021/08/09 08:02:08;;;;;;;5.27;1.63;;;21.80;65.40;;;;;;5075393;28;20456;-75
2021/08/09 08:04:35;;;;;;;4.23;1.77;;;21.90;64.40;;;;;;5075335;28;20448;-75
2021/08/09 08:07:02;;;;;;;4.33;1.33;;;22.20;64.30;;;;;;5075305;28;20447;-75
2021/08/09 08:09:29;;;;;;;3.03;1.40;;;22.30;62.60;;;;;;5075299;28;20448;-75
2021/08/09 08:11:55;;;;;;;3.37;1.27;;;22.50;63.20;;;;;;5075267;28;20444;-75
2021/08/09 08:14:22;;;;;;;2.93;1.63;;;22.80;60.30;;;;;;5074847;28;20452;-75
2021/08/09 08:16:51;;;;;;;3.20;1.50;;;22.90;59.40;;;;;;5075015;28;20484;-75
2021/08/09 08:19:18;;;;;;;2.03;0.90;;;23.00;58.70;;;;;;5075113;28;20449;-75
2021/08/09 08:21:44;;;;;;;5.43;1.53;;;23.10;58.50;;;;;;5074812;28;20453;-75
2021/08/09 08:24:11;;;;;;;1.80;1.33;;;23.10;58.10;;;;;;5075089;28;20436;-75
2021/08/09 08:26:38;;;;;;;3.03;1.60;;;23.20;57.90;;;;;;5075307;28;20475;-75
2021/08/09 08:29:05;;;;;;;4.20;1.50;;;23.30;57.60;;;;;;5074564;28;21042;-75
2021/08/09 08:31:32;;;;;;;3.00;1.20;;;23.40;57.00;;;;;;5074801;28;20472;-76
2021/08/09 08:34:00;;;;;;;2.70;1.37;;;23.50;56.20;;;;;;5074899;28;20919;-75
2021/08/09 08:36:27;;;;;;;3.60;1.70;;;23.50;54.90;;;;;;5074573;28;20495;-75
2021/08/09 08:38:53;;;;;;;2.50;1.10;;;23.30;55.00;;;;;;5074751;28;20543;-75
2021/08/09 08:41:20;;;;;;;4.57;2.00;;;23.30;56.50;;;;;;5074626;28;20817;-75
2021/08/09 08:43:47;;;;;;;4.07;1.40;;;23.30;56.70;;;;;;5074485;28;20462;-75
2021/08/09 08:46:14;;;;;;;2.93;2.00;;;23.50;56.80;;;;;;5074505;28;20469;-76
2021/08/09 08:48:40;;;;;;;1.93;1.20;;;23.70;56.50;;;;;;5074443;28;20476;-75
2021/08/09 08:51:08;;;;;;;2.67;1.37;;;23.80;55.40;;;;;;5074407;28;20444;-75
2021/08/09 08:53:37;;;;;;;5.93;1.60;;;23.90;56.50;;;;;;5074438;28;20445;-75
2021/08/09 08:56:05;;;;;;;2.60;1.60;;;24.00;56.50;;;;;;5074915;28;20480;-76
2021/08/09 08:58:32;;;;;;;6.00;1.20;;;24.10;56.10;;;;;;5073993;28;20943;-76
2021/08/09 09:00:59;;;;;;;3.80;1.53;;;24.20;54.80;;;;;;5073963;28;20942;-74
2021/08/09 09:03:27;;;;;;;4.43;1.10;;;24.20;54.00;;;;;;5074206;28;20456;-74
2021/08/09 09:06:01;;;;;;;2.13;1.63;;;24.10;54.50;;;;;;5074133;28;20472;-74
2021/08/09 09:08:43;;;;;;;3.57;2.13;;;24.30;55.90;;;;;;5073979;28;20486;-74
2021/08/09 09:11:11;;;;;;;2.20;1.00;;;24.50;54.40;;;;;;5074480;28;20520;-74
2021/08/09 09:13:38;;;;;;;3.83;1.47;;;24.50;53.20;;;;;;5073688;28;20449;-74
2021/08/09 09:16:07;;;;;;;4.67;1.03;;;24.80;53.60;;;;;;5073820;28;20485;-74
2021/08/09 09:18:47;;;;;;;3.60;1.40;;;25.10;53.00;;;;;;5073918;28;20544;-74
2021/08/09 09:21:25;;;;;;;5.33;1.40;;;25.60;51.40;;;;;;5074821;28;20441;-74
2021/08/09 09:23:54;;;;;;;2.33;1.37;;;25.80;50.80;;;;;;5073560;28;20838;-74
2021/08/09 09:26:22;;;;;;;5.00;1.33;;;25.90;49.60;;;;;;5074429;28;20480;-75
2021/08/09 09:28:50;;;;;;;2.53;1.27;;;25.80;49.30;;;;;;5073785;28;20474;-74
2021/08/09 09:31:28;;;;;;;3.13;1.60;;;25.80;50.20;;;;;;5073787;28;20440;-76
2021/08/09 09:33:54;;;;;;;5.20;1.70;;;25.50;49.20;;;;;;5073784;28;20436;-75
2021/08/09 09:36:22;;;;;;;3.20;1.40;;;25.40;50.00;;;;;;5073577;28;20491;-75
2021/08/09 09:38:51;;;;;;;5.50;1.40;;;25.20;50.60;;;;;;5073767;28;20440;-75
2021/08/09 09:41:21;;;;;;;4.67;1.83;;;25.20;50.80;;;;;;5073629;28;20518;-75
2021/08/09 09:43:48;;;;;;;5.10;1.30;;;25.20;50.30;;;;;;5073421;28;20429;-74
2021/08/09 09:46:23;;;;;;;7.73;1.53;;;25.20;49.90;;;;;;5073502;28;20483;-76
2021/08/09 09:48:55;;;;;;;2.77;0.90;;;25.10;49.30;;;;;;5073319;28;20811;-75
2021/08/09 09:51:22;;;;;;;2.60;1.20;;;25.00;49.40;;;;;;5073682;28;20435;-76
2021/08/09 09:53:50;;;;;;;4.67;1.30;;;24.70;49.00;;;;;;5073434;28;20970;-76
2021/08/09 09:56:19;;;;;;;2.00;1.10;;;24.70;49.80;;;;;;5073442;28;20484;-76
2021/08/09 09:58:46;;;;;;;5.37;1.73;;;24.50;49.50;;;;;;5073192;28;20452;-76
2021/08/09 10:01:13;;;;;;;3.00;1.53;;;24.50;50.00;;;;;;5073534;28;20432;-76
2021/08/09 10:03:42;;;;;;;4.27;1.87;;;24.60;50.20;;;;;;5073384;28;20464;-76
2021/08/09 10:06:11;;;;;;;4.27;1.20;;;24.90;50.90;;;;;;5073276;28;20468;-76
2021/08/09 10:08:43;;;;;;;2.93;0.93;;;25.20;49.90;;;;;;5073331;28;20476;-76
2021/08/09 10:11:10;;;;;;;2.27;1.10;;;25.70;47.20;;;;;;5073378;28;20440;-76
2021/08/09 10:13:39;;;;;;;2.63;1.30;;;25.80;46.60;;;;;;5073254;28;20445;-75
2021/08/09 10:16:08;;;;;;;2.60;1.23;;;26.00;45.50;;;;;;5073182;28;20661;-74
2021/08/09 10:18:36;;;;;;;2.73;1.30;;;26.10;47.00;;;;;;5073018;28;20946;-75
2021/08/09 10:21:05;;;;;;;2.77;1.10;;;26.00;45.40;;;;;;5076255;28;20452;-76
2021/08/09 10:23:37;;;;;;;3.50;1.67;;;25.90;45.80;;;;;;5076902;28;20456;-74
2021/08/09 10:26:04;;;;;;;8.10;1.47;;;26.00;46.90;;;;;;5077186;28;20460;-74
2021/08/09 10:29:03;;;;;;;3.30;1.30;;;26.50;46.40;;;;;;5077218;28;20444;-74
2021/08/09 10:31:33;;;;;;;2.80;1.20;;;26.90;43.30;;;;;;5077226;28;20440;-74
2021/08/09 10:34:00;;;;;;;2.63;1.43;;;27.10;42.70;;;;;;5077030;28;20444;-76
2021/08/09 10:36:27;;;;;;;1.87;1.10;;;27.40;42.70;;;;;;5076962;28;20488;-75
2021/08/09 10:38:55;;;;;;;3.77;1.10;;;27.70;43.10;;;;;;5076949;28;20456;-75
2021/08/09 10:41:38;;;;;;;3.07;1.17;;;28.30;41.20;;;;;;5076917;28;20452;-74
2021/08/09 10:44:25;;;;;;;3.23;1.50;;;28.70;39.40;;;;;;5076667;28;20905;-75
2021/08/09 10:46:55;;;;;;;3.70;1.50;;;28.90;39.40;;;;;;5076796;28;20469;-74
2021/08/09 10:49:52;;;;;;;1.80;1.03;;;29.10;40.20;;;;;;5076779;28;20539;-74
2021/08/09 10:52:50;;;;;;;2.77;1.13;;;29.30;39.60;;;;;;5076817;28;20429;-75
2021/08/09 10:55:45;;;;;;;4.07;1.30;;;29.10;37.90;;;;;;5076660;28;20460;-74
2021/08/09 10:58:45;;;;;;;3.03;1.33;;;29.10;38.80;;;;;;5076697;28;20504;-74
2021/08/09 11:01:14;;;;;;;2.50;1.23;;;29.10;38.60;;;;;;5069591;28;20451;-74
2021/08/09 11:04:14;;;;;;;2.63;1.50;;;29.50;38.80;;;;;;5076551;28;20799;-75
2021/08/09 11:06:52;;;;;;;4.20;1.37;;;29.50;37.90;;;;;;5076270;28;20452;-74
2021/08/09 11:09:44;;;;;;;3.77;1.33;;;28.90;38.40;;;;;;5076619;28;20429;-74
2021/08/09 11:12:16;;;;;;;6.00;1.60;;;28.40;38.30;;;;;;5076408;28;20449;-74
2021/08/09 11:15:22;;;;;;;2.23;1.20;;;28.10;38.80;;;;;;5076390;28;20428;-75
2021/08/09 11:17:58;;;;;;;2.43;1.00;;;27.90;38.90;;;;;;5076271;28;20828;-74
2021/08/09 11:20:30;;;;;;;2.20;1.30;;;27.70;39.20;;;;;;5076311;28;20456;-75
2021/08/09 11:23:03;;;;;;;3.97;1.30;;;27.60;39.80;;;;;;5076102;28;20460;-75
2021/08/09 11:25:33;;;;;;;1.63;1.10;;;27.60;40.40;;;;;;5076138;28;20464;-74
2021/08/09 11:28:04;;;;;;;5.53;1.13;;;27.60;40.90;;;;;;5075769;28;20927;-74
2021/08/09 11:30:46;;;;;;;8.23;1.20;;;27.70;41.50;;;;;;5075960;28;20440;-76
2021/08/09 11:33:23;;;;;;;2.20;0.70;;;28.40;39.90;;;;;;5076036;28;20467;-76
2021/08/09 11:35:50;;;;;;;1.87;1.33;;;29.20;38.00;;;;;;5075840;28;20875;-76
2021/08/09 11:38:17;;;;;;;5.37;1.30;;;30.10;36.10;;;;;;5075611;28;20884;-76
2021/08/09 11:40:46;;;;;;;4.10;1.70;;;30.50;35.00;;;;;;5075537;28;20862;-75
2021/08/09 11:43:15;;;;;;;3.60;1.20;;;30.50;35.30;;;;;;5075834;28;20444;-76
2021/08/09 11:45:42;;;;;;;6.90;1.33;;;30.30;34.40;;;;;;5075402;28;20993;-76
2021/08/09 11:48:09;;;;;;;5.90;1.50;;;29.80;34.80;;;;;;5075728;28;20467;-76
2021/08/09 11:50:42;;;;;;;2.07;1.10;;;29.30;35.70;;;;;;5075317;28;20458;-74
2021/08/09 11:53:10;;;;;;;4.40;1.27;;;29.00;35.90;;;;;;5075581;28;20526;-76
2021/08/09 11:55:37;;;;;;;3.37;1.10;;;28.90;36.50;;;;;;5075456;28;20566;-75
2021/08/09 11:58:04;;;;;;;6.60;1.63;;;28.70;37.40;;;;;;5075145;28;20495;-76
2021/08/09 12:00:42;;;;;;;1.33;0.90;;;28.50;36.90;;;;;;5075477;28;20455;-73
2021/08/09 12:03:10;;;;;;;5.10;1.40;;;28.30;37.80;;;;;;5075989;28;20455;-74
2021/08/09 12:05:37;;;;;;;4.33;1.30;;;27.90;38.50;;;;;;5075011;28;20469;-74
2021/08/09 12:08:07;;;;;;;5.37;1.80;;;28.00;40.10;;;;;;5075321;28;20441;-75
2021/08/09 12:10:34;;;;;;;2.90;1.40;;;28.00;40.00;;;;;;5075244;28;20448;-76
2021/08/09 12:13:01;;;;;;;5.13;1.20;;;28.00;39.10;;;;;;5075251;28;20490;-76
2021/08/09 12:15:28;;;;;;;3.17;1.20;;;28.10;38.90;;;;;;5075158;28;20975;-76
2021/08/09 12:18:06;;;;;;;4.43;1.40;;;28.20;38.80;;;;;;5075068;28;20918;-74
2021/08/09 12:20:34;;;;;;;4.17;1.03;;;27.90;39.40;;;;;;5075070;28;20448;-74
2021/08/09 12:23:01;;;;;;;4.80;1.20;;;27.40;40.10;;;;;;5074609;28;20973;-76
2021/08/09 12:25:40;;;;;;;3.60;1.30;;;27.20;39.90;;;;;;5075473;28;20487;-74
2021/08/09 12:28:07;;;;;;;6.57;1.30;;;27.00;40.50;;;;;;5074952;28;20429;-76
2021/08/09 12:30:53;;;;;;;7.50;1.10;;;26.90;41.80;;;;;;5074836;28;20448;-75
2021/08/09 12:33:20;;;;;;;4.40;1.20;;;26.90;41.50;;;;;;5074507;28;20952;-74
2021/08/09 12:35:48;;;;;;;2.47;1.37;;;27.00;41.00;;;;;;5074672;28;20468;-74
2021/08/09 12:38:16;;;;;;;2.40;1.07;;;27.10;42.10;;;;;;5074651;28;20472;-74
2021/08/09 12:40:45;;;;;;;4.23;1.00;;;27.60;39.80;;;;;;5074680;28;20475;-74
2021/08/09 12:43:14;;;;;;;2.27;0.80;;;27.80;39.30;;;;;;5073873;28;20817;-75
2021/08/09 12:45:42;;;;;;;1.53;0.80;;;28.20;39.90;;;;;;5074484;28;20472;-76
2021/08/09 12:48:10;;;;;;;1.93;0.93;;;28.90;38.50;;;;;;5074499;28;20532;-76
2021/08/09 12:50:39;;;;;;;2.93;1.07;;;29.20;36.30;;;;;;5074470;28;20455;-75
2021/08/09 12:53:06;;;;;;;4.40;1.50;;;29.50;36.40;;;;;;5074108;28;20444;-76
2021/08/09 12:55:32;;;;;;;7.60;1.27;;;29.70;35.60;;;;;;5074034;28;20468;-75